createdAt,value
2019-01-05T00:00:38.854Z,0.60
2019-01-05T00:03:47.369Z,0.60
2019-01-05T00:06:51.637Z,0.60
2019-01-05T00:09:59.298Z,0.70
2019-01-05T00:13:17.698Z,0.60
2019-01-05T00:16:24.305Z,0.60
2019-01-05T00:19:35.278Z,0.60
2019-01-05T00:22:44.793Z,0.70
2019-01-05T00:25:57.205Z,0.60
2019-01-05T00:29:24.763Z,0.60
2019-01-05T00:32:49.939Z,0.60
2019-01-05T00:36:04.108Z,0.70
2019-01-05T00:39:26.615Z,0.70
2019-01-05T00:42:50.709Z,0.60
2019-01-05T00:46:13.172Z,0.70
2019-01-05T00:49:30.396Z,0.70
2019-01-05T00:52:39.928Z,0.80
2019-01-05T00:55:50.863Z,0.80
2019-01-05T00:59:06.200Z,0.80
2019-01-05T01:02:12.394Z,0.90
2019-01-05T01:05:25.034Z,0.80
2019-01-05T01:08:36.899Z,0.90
2019-01-05T01:11:55.173Z,0.90
2019-01-05T01:15:02.815Z,0.90
2019-01-05T01:18:10.285Z,0.90
2019-01-05T01:21:22.705Z,0.80
2019-01-05T01:24:32.056Z,0.80
2019-01-05T01:27:44.438Z,0.80
2019-01-05T01:30:57.055Z,0.70
2019-01-05T01:34:13.726Z,0.70
2019-01-05T01:37:26.275Z,0.70
2019-01-05T01:40:34.739Z,0.70
2019-01-05T01:43:46.553Z,0.70
2019-01-05T01:47:05.932Z,0.70
2019-01-05T01:50:09.446Z,0.60
2019-01-05T01:53:18.915Z,0.50
2019-01-05T01:56:39.341Z,0.40
2019-01-05T02:00:18.141Z,0.40
2019-01-05T02:03:38.411Z,0.30
2019-01-05T02:06:48.078Z,0.40
2019-01-05T02:10:04.226Z,0.30
2019-01-05T02:13:28.813Z,0.30
2019-01-05T02:16:43.650Z,0.40
2019-01-05T02:20:12.903Z,0.40
2019-01-05T02:24:09.798Z,0.50
2019-01-05T02:28:25.081Z,0.60
2019-01-05T02:32:37.599Z,0.70
2019-01-05T02:36:13.253Z,0.80
2019-01-05T02:39:42.154Z,0.80
2019-01-05T02:43:48.500Z,0.80
2019-01-05T02:47:47.504Z,0.70
2019-01-05T02:51:09.286Z,0.70
2019-01-05T02:54:54.345Z,0.70
2019-01-05T02:58:34.835Z,0.70
2019-01-05T03:02:31.258Z,0.70
2019-01-05T03:06:05.683Z,0.60
2019-01-05T03:09:51.240Z,0.60
2019-01-05T03:13:45.156Z,0.60
2019-01-05T03:17:45.198Z,0.70
2019-01-05T03:21:41.289Z,0.70
2019-01-05T03:25:32.970Z,0.80
2019-01-05T03:29:36.578Z,0.70
2019-01-05T03:33:34.525Z,0.70
2019-01-05T03:37:26.657Z,0.70
2019-01-05T03:41:28.791Z,0.60
2019-01-05T03:45:01.423Z,0.60
2019-01-05T03:48:50.886Z,0.60
2019-01-05T03:52:46.266Z,0.60
2019-01-05T03:56:28.621Z,0.60
2019-01-05T04:00:18.496Z,0.70
2019-01-05T04:04:24.367Z,0.70
2019-01-05T04:08:10.291Z,0.70
2019-01-05T04:11:59.434Z,0.70
2019-01-05T04:15:55.725Z,0.70
2019-01-05T04:19:45.441Z,0.80
2019-01-05T04:23:36.288Z,0.90
2019-01-05T04:27:17.908Z,0.90
2019-01-05T04:31:04.082Z,0.80
2019-01-05T04:34:41.863Z,0.90
2019-01-05T04:38:40.197Z,0.70
2019-01-05T04:42:53.242Z,0.70
2019-01-05T04:46:40.738Z,0.70
2019-01-05T04:50:29.196Z,0.70
2019-01-05T04:54:49.577Z,0.70
2019-01-05T04:58:41.340Z,0.70
2019-01-05T05:02:27.880Z,0.70
2019-01-05T05:06:28.183Z,0.60
2019-01-05T05:10:34.221Z,0.60
2019-01-05T05:14:16.798Z,0.60
2019-01-05T05:18:19.229Z,0.60
2019-01-05T05:22:38.609Z,0.50
2019-01-05T05:26:27.779Z,0.50
2019-01-05T05:30:29.003Z,0.50
2019-01-05T05:34:09.858Z,0.60
2019-01-05T05:37:56.529Z,0.70
2019-01-05T05:41:43.534Z,0.60
2019-01-05T05:45:52.995Z,0.70
2019-01-05T05:49:44.478Z,0.60
2019-01-05T05:53:46.018Z,0.60
2019-01-05T05:57:33.578Z,0.60
2019-01-05T06:01:30.746Z,0.60
2019-01-05T06:05:16.551Z,0.70
2019-01-05T06:09:03.694Z,0.70
2019-01-05T06:13:03.540Z,0.70
2019-01-05T06:16:50.648Z,0.70
2019-01-05T06:20:58.296Z,0.80
2019-01-05T06:24:48.648Z,0.80
2019-01-05T06:28:49.614Z,0.90
2019-01-05T06:32:41.123Z,0.90
2019-01-05T06:36:36.327Z,1.00
2019-01-05T06:40:25.108Z,1.00
2019-01-05T06:44:18.930Z,1.00
2019-01-05T06:48:23.650Z,1.10
2019-01-05T06:52:40.040Z,1.10
2019-01-05T06:56:52.321Z,1.10
2019-01-05T07:00:41.856Z,1.10
2019-01-05T07:04:50.204Z,1.20
2019-01-05T07:09:13.547Z,1.20
2019-01-05T07:13:23.698Z,1.20
2019-01-05T07:17:37.168Z,1.20
2019-01-05T07:21:42.587Z,1.20
2019-01-05T07:25:51.372Z,1.30
2019-01-05T07:29:48.490Z,1.20
2019-01-05T07:33:56.522Z,1.20
2019-01-05T07:38:00.095Z,1.20
2019-01-05T07:42:01.121Z,1.20
2019-01-05T07:45:55.776Z,1.30
2019-01-05T07:49:51.415Z,1.30
2019-01-05T07:53:47.001Z,1.20
2019-01-05T07:57:33.386Z,1.30
2019-01-05T08:01:20.603Z,1.30
2019-01-05T08:05:16.758Z,1.30
2019-01-05T08:09:12.042Z,1.30
2019-01-05T08:13:22.221Z,1.50
2019-01-05T08:17:21.965Z,1.50
2019-01-05T08:21:05.450Z,1.50
2019-01-05T08:24:59.139Z,1.50
2019-01-05T08:28:55.668Z,1.40
2019-01-05T08:32:52.487Z,1.50
2019-01-05T08:36:49.943Z,1.50
2019-01-05T08:40:36.666Z,1.50
2019-01-05T08:44:32.789Z,1.50
2019-01-05T08:48:27.817Z,1.60
2019-01-05T08:57:38.373Z,1.70
2019-01-05T09:01:44.226Z,1.80
2019-01-05T09:06:00.176Z,1.80
2019-01-05T09:09:56.263Z,1.80
2019-01-05T09:13:52.624Z,1.90
2019-01-05T09:18:14.318Z,1.90
2019-01-05T09:22:18.444Z,1.90
2019-01-05T09:26:04.570Z,2.00
2019-01-05T09:29:55.733Z,2.00
2019-01-05T09:36:35.814Z,2.00
2019-01-05T09:40:37.778Z,2.10
2019-01-05T09:44:42.059Z,2.20
2019-01-05T09:48:39.367Z,2.10
2019-01-05T09:52:54.824Z,2.00
2019-01-05T09:57:01.713Z,2.10
2019-01-05T10:01:08.745Z,2.10
2019-01-05T10:05:01.738Z,2.20
2019-01-05T10:08:59.288Z,2.20
2019-01-05T10:12:58.347Z,2.30
2019-01-05T10:16:44.456Z,2.30
2019-01-05T10:21:08.071Z,2.40
2019-01-05T10:25:31.679Z,2.50
2019-01-05T10:29:53.158Z,2.60
2019-01-05T10:33:44.157Z,2.70
2019-01-05T10:37:32.958Z,2.70
2019-01-05T10:41:16.039Z,2.80
2019-01-05T10:45:15.603Z,2.80
2019-01-05T10:49:19.998Z,2.80
2019-01-05T10:53:07.414Z,2.90
2019-01-05T10:57:03.920Z,2.90
2019-01-05T11:01:01.029Z,2.90
2019-01-05T11:04:57.922Z,2.90
2019-01-05T11:08:55.652Z,2.90
2019-01-05T11:12:54.819Z,3.10
2019-01-05T11:16:42.529Z,3.20
2019-01-05T11:21:02.059Z,3.30
2019-01-05T11:24:58.178Z,3.50
2019-01-05T11:28:47.035Z,3.60
2019-01-05T11:32:53.885Z,3.70
2019-01-05T11:36:58.942Z,3.80
2019-01-05T11:41:04.431Z,3.90
2019-01-05T11:45:09.571Z,3.90
2019-01-05T11:49:08.936Z,4.00
2019-01-05T11:53:18.058Z,4.10
2019-01-05T11:57:01.618Z,4.10
2019-01-05T12:00:51.541Z,4.10
2019-01-05T12:04:31.237Z,4.20
2019-01-05T12:08:15.443Z,4.00
2019-01-05T12:12:37.874Z,4.00
2019-01-05T12:16:45.326Z,4.00
2019-01-05T12:20:27.267Z,4.20
2019-01-05T12:24:18.369Z,4.40
2019-01-05T12:28:21.847Z,4.70
2019-01-05T12:31:59.013Z,4.80
2019-01-05T12:35:46.745Z,4.80
2019-01-05T12:39:27.629Z,4.70
2019-01-05T12:43:34.108Z,5.20
2019-01-05T12:47:46.530Z,5.30
2019-01-05T12:51:30.769Z,5.40
2019-01-05T12:55:28.795Z,5.80
2019-01-05T12:59:35.077Z,5.70
2019-01-05T13:03:11.802Z,6.10
2019-01-05T13:07:05.011Z,5.90
2019-01-05T13:11:05.435Z,4.90
2019-01-05T13:14:36.730Z,5.10
2019-01-05T13:18:55.982Z,5.40
2019-01-05T13:22:46.520Z,4.40
2019-01-05T13:26:38.791Z,4.60
2019-01-05T13:30:34.652Z,4.30
2019-01-05T13:34:51.302Z,3.90
2019-01-05T13:38:57.134Z,3.60
2019-01-05T13:43:06.367Z,3.40
2019-01-05T13:47:24.986Z,3.50
2019-01-05T13:51:35.191Z,3.10
2019-01-05T13:54:48.867Z,3.30
2019-01-05T13:58:02.747Z,3.20
2019-01-05T14:01:26.506Z,3.00
2019-01-05T14:04:52.767Z,2.90
2019-01-05T14:08:09.331Z,2.90
2019-01-05T14:11:32.784Z,3.00
2019-01-05T14:14:48.828Z,3.00
2019-01-05T14:17:59.403Z,3.10
2019-01-05T14:21:13.661Z,3.10
2019-01-05T14:24:25.561Z,3.10
2019-01-05T14:27:38.451Z,3.10
2019-01-05T14:30:58.026Z,3.00
2019-01-05T14:34:24.649Z,3.00
2019-01-05T14:37:46.098Z,3.00
2019-01-05T14:41:01.370Z,3.00
2019-01-05T14:44:18.487Z,3.10
2019-01-05T14:48:03.633Z,2.90
2019-01-05T14:51:32.054Z,3.00
2019-01-05T14:54:47.898Z,2.80
2019-01-05T14:58:02.937Z,2.70
2019-01-05T15:01:28.042Z,2.70
2019-01-05T15:04:53.454Z,2.60
2019-01-05T15:08:20.229Z,2.60
2019-01-05T15:11:40.012Z,2.50
2019-01-05T15:14:54.909Z,2.50
2019-01-05T15:18:27.152Z,2.60
2019-01-05T15:21:55.338Z,2.60
2019-01-05T15:25:16.327Z,2.70
2019-01-05T15:28:44.396Z,2.70
2019-01-05T15:31:59.176Z,2.70
2019-01-05T15:35:16.951Z,2.60
2019-01-05T15:38:30.416Z,2.70
2019-01-05T15:42:04.158Z,2.70
2019-01-05T15:45:11.584Z,2.70
2019-01-05T15:48:29.999Z,2.80
2019-01-05T15:51:53.766Z,2.80
2019-01-05T15:55:02.359Z,2.80
2019-01-05T15:58:16.979Z,2.80
2019-01-05T16:01:40.943Z,2.90
2019-01-05T16:05:02.213Z,2.80
2019-01-05T16:08:16.502Z,2.80
2019-01-05T16:11:31.658Z,2.80
2019-01-05T16:14:40.412Z,2.70
2019-01-05T16:18:01.331Z,2.60
2019-01-05T16:21:19.219Z,2.60
2019-01-05T16:24:37.421Z,2.70
2019-01-05T16:27:50.345Z,2.70
2019-01-05T16:31:04.882Z,2.60
2019-01-05T16:34:13.313Z,2.60
2019-01-05T16:37:25.082Z,2.50
2019-01-05T16:40:36.583Z,2.50
2019-01-05T16:43:51.250Z,2.50
2019-01-05T16:47:02.408Z,2.50
2019-01-05T16:50:19.397Z,2.50
2019-01-05T16:53:27.427Z,2.50
2019-01-05T16:56:42.788Z,2.50
2019-01-05T16:59:52.925Z,2.50
2019-01-05T17:03:10.737Z,2.50
2019-01-05T17:06:37.574Z,2.40
2019-01-05T17:09:54.700Z,2.50
2019-01-05T17:13:21.118Z,2.50
2019-01-05T17:16:45.668Z,2.40
2019-01-05T17:20:07.743Z,2.40
2019-01-05T17:23:22.134Z,2.40
2019-01-05T17:26:47.122Z,2.40
2019-01-05T17:30:10.659Z,2.40
2019-01-05T17:33:43.047Z,2.40
2019-01-05T17:36:55.513Z,2.40
2019-01-05T17:40:29.799Z,2.30
2019-01-05T17:43:58.748Z,2.30
2019-01-05T17:47:27.518Z,2.30
2019-01-05T17:50:47.829Z,2.40
2019-01-05T17:54:10.569Z,2.40
2019-01-05T17:57:25.166Z,2.30
2019-01-05T18:00:42.590Z,2.30
2019-01-05T18:04:01.703Z,2.30
2019-01-05T18:07:21.897Z,2.40
2019-01-05T18:10:40.059Z,2.40
2019-01-05T18:14:07.490Z,2.30
2019-01-05T18:17:46.108Z,2.40
2019-01-05T18:21:22.055Z,2.30
2019-01-05T18:24:42.946Z,2.30
2019-01-05T18:27:56.592Z,2.30
2019-01-05T18:31:36.803Z,2.40
2019-01-05T18:34:53.463Z,2.40
2019-01-05T18:38:12.013Z,2.40
2019-01-05T18:41:39.775Z,2.40
2019-01-05T18:44:52.046Z,2.30
2019-01-05T18:48:09.857Z,2.20
2019-01-05T18:51:23.171Z,2.20
2019-01-05T18:54:37.116Z,2.20
2019-01-05T18:57:53.512Z,2.20
2019-01-05T19:01:05.122Z,2.20
2019-01-05T19:04:37.977Z,2.20
2019-01-05T19:07:56.257Z,2.10
2019-01-05T19:11:16.617Z,2.10
2019-01-05T19:14:32.960Z,2.20
2019-01-05T19:17:57.153Z,2.30
2019-01-05T19:21:13.285Z,2.30
2019-01-05T19:24:42.643Z,2.40
2019-01-05T19:27:56.769Z,2.40
2019-01-05T19:31:25.694Z,2.40
2019-01-05T19:34:39.507Z,2.50
2019-01-05T19:37:54.671Z,2.50
2019-01-05T19:41:15.064Z,2.50
2019-01-05T19:44:42.803Z,2.50
2019-01-05T19:48:00.193Z,2.50
2019-01-05T19:51:18.470Z,2.50
2019-01-05T19:54:29.393Z,2.50
2019-01-05T19:57:47.476Z,2.60
2019-01-05T20:01:15.234Z,2.50
2019-01-05T20:04:49.360Z,2.50
2019-01-05T20:08:03.570Z,2.50
2019-01-05T20:11:31.418Z,2.50
2019-01-05T20:14:56.662Z,2.50
2019-01-05T20:18:14.742Z,2.50
2019-01-05T20:21:36.080Z,2.40
2019-01-05T20:24:49.041Z,2.50
2019-01-05T20:28:06.168Z,2.50
2019-01-05T20:31:23.838Z,2.60
2019-01-05T20:35:05.885Z,2.60
2019-01-05T20:38:17.171Z,2.50
2019-01-05T20:41:34.850Z,2.60
2019-01-05T20:45:10.906Z,2.60
2019-01-05T20:48:39.410Z,2.60
2019-01-05T20:52:12.849Z,2.50
2019-01-05T20:55:53.090Z,2.60
2019-01-05T20:59:15.530Z,2.60
2019-01-05T21:02:31.660Z,2.60
2019-01-05T21:05:58.290Z,2.60
2019-01-05T21:09:27.437Z,2.60
2019-01-05T21:12:57.030Z,2.50
2019-01-05T21:16:17.650Z,2.60
2019-01-05T21:19:36.694Z,2.50
2019-01-05T21:22:54.712Z,2.50
2019-01-05T21:26:31.651Z,2.60
2019-01-05T21:29:54.359Z,2.60
2019-01-05T21:33:10.844Z,2.60
2019-01-05T21:36:39.879Z,2.60
2019-01-05T21:40:06.039Z,2.60
2019-01-05T21:43:16.464Z,2.60
2019-01-05T21:46:25.701Z,2.60
2019-01-05T21:49:44.857Z,2.60
2019-01-05T21:52:59.937Z,2.60
2019-01-05T21:56:01.674Z,2.70
2019-01-05T21:59:09.126Z,2.60
2019-01-05T22:02:16.693Z,2.60
2019-01-05T22:05:25.661Z,2.50
2019-01-05T22:08:52.310Z,2.50
2019-01-05T22:12:00.202Z,2.40
2019-01-05T22:15:09.144Z,2.50
2019-01-05T22:18:31.865Z,2.50
2019-01-05T22:21:39.123Z,2.50
2019-01-05T22:25:00.000Z,2.50
2019-01-05T22:28:07.525Z,2.50
2019-01-05T22:31:17.330Z,2.50
2019-01-05T22:34:27.146Z,2.50
2019-01-05T22:37:52.021Z,2.50
2019-01-05T22:40:59.333Z,2.50
2019-01-05T22:44:14.183Z,2.50
2019-01-05T22:47:23.391Z,2.50
2019-01-05T22:50:31.487Z,2.50
2019-01-05T22:53:52.528Z,2.50
2019-01-05T22:56:59.916Z,2.50
2019-01-05T23:00:07.413Z,2.50
2019-01-05T23:03:24.583Z,2.50
2019-01-05T23:06:42.708Z,2.50
2019-01-05T23:09:53.141Z,2.50
2019-01-05T23:13:08.295Z,2.50
2019-01-05T23:16:24.444Z,2.50
2019-01-05T23:19:36.357Z,2.50
2019-01-05T23:22:46.071Z,2.50
2019-01-05T23:25:48.439Z,2.50
2019-01-05T23:29:15.666Z,2.50
2019-01-05T23:32:33.310Z,2.50
2019-01-05T23:35:41.990Z,2.50
2019-01-05T23:38:50.351Z,2.50
2019-01-05T23:42:07.897Z,2.50
2019-01-05T23:45:15.836Z,2.50
2019-01-05T23:48:27.197Z,2.40
2019-01-05T23:51:54.175Z,2.40
2019-01-05T23:55:01.853Z,2.50
2019-01-05T23:58:08.797Z,2.40
